Time;durP1;ratioP1;P1;durP2;ratioP2;P2;SDS_P1;SDS_P2;PMS_P1;PMS_P2;Temp;Humidity;BMP_temperature;BMP_pressure;BME280_temperature;BME280_humidity;BME280_pressure;Samples;Min_cycle;Max_cycle;Signal;HPM_P1;HPM_P2
2023/06/23 00:01:03;;;;;;;13.57;12.17;;;;;;;20.97;100.00;95210.47;5093507;28;20438;-77
2023/06/23 00:03:31;;;;;;;17.13;11.93;;;;;;;20.92;100.00;95204.84;5093827;28;21010;-78
2023/06/23 00:06:00;;;;;;;13.50;12.10;;;;;;;20.82;100.00;95201.66;5093716;28;20449;-79
2023/06/23 00:08:26;;;;;;;12.37;11.10;;;;;;;20.75;100.00;95192.72;5093455;28;20441;-79
2023/06/23 00:10:54;;;;;;;13.90;12.57;;;;;;;20.75;100.00;95212.22;5093562;28;20937;-79
2023/06/23 00:13:21;;;;;;;14.03;12.73;;;;;;;20.69;100.00;95211.13;5094108;28;20441;-78
2023/06/23 00:15:49;;;;;;;14.07;12.53;;;;;;;20.56;100.00;95191.47;5041671;28;20454;-78
2023/06/23 00:19:02;;;;;;;15.03;12.63;;;;;;;20.50;100.00;95201.00;5093912;28;20464;-78
2023/06/23 00:21:30;;;;;;;13.70;12.33;;;;;;;20.48;100.00;95196.84;5093415;28;20939;-78
2023/06/23 00:23:56;;;;;;;14.60;13.10;;;;;;;20.34;100.00;95201.97;5093327;28;20436;-78
2023/06/23 00:56:41;;;;;;;14.00;11.90;;;;;;;20.34;100.00;95186.00;5093208;28;20388;-78
2023/06/23 00:59:08;;;;;;;14.37;12.87;;;;;;;20.34;100.00;95190.50;5093267;28;20460;-78
2023/06/23 01:01:36;;;;;;;15.27;13.80;;;;;;;20.32;100.00;95184.53;5093114;28;20453;-78
2023/06/23 01:04:04;;;;;;;15.50;13.90;;;;;;;20.33;100.00;95184.34;5093636;28;20481;-79
2023/06/23 01:06:41;;;;;;;15.10;13.20;;;;;;;20.29;100.00;95188.38;5093322;28;20480;-78
2023/06/23 01:09:18;;;;;;;14.17;12.67;;;;;;;20.27;100.00;95182.41;5092991;28;20987;-78
2023/06/23 01:11:54;;;;;;;15.63;13.70;;;;;;;20.31;100.00;95193.53;5093271;28;20444;-76
2023/06/23 01:14:29;;;;;;;15.60;12.40;;;;;;;20.30;100.00;95189.19;5095052;28;20869;-79
2023/06/23 01:17:01;;;;;;;14.37;12.87;;;;;;;20.26;100.00;95194.06;5097081;28;20880;-78
2023/06/23 01:19:47;;;;;;;15.63;13.40;;;;;;;20.27;100.00;95186.91;5096507;28;20429;-78
2023/06/23 01:22:25;;;;;;;19.43;14.57;;;;;;;20.23;100.00;95182.94;5096914;28;20856;-78
2023/06/23 01:25:07;;;;;;;14.13;12.73;;;;;;;20.37;100.00;95198.13;5096421;28;20452;-78
2023/06/23 01:27:49;;;;;;;16.00;12.60;;;;;;;20.34;100.00;95186.00;5096914;28;20487;-78
2023/06/23 01:30:21;;;;;;;16.00;13.87;;;;;;;20.36;100.00;95188.47;5096868;28;20428;-78
2023/06/23 01:32:53;;;;;;;17.80;14.30;;;;;;;20.40;100.00;95189.78;5096871;28;20483;-78
2023/06/23 01:35:26;;;;;;;22.67;15.30;;;;;;;20.38;100.00;95189.13;5096415;28;20438;-77
2023/06/23 01:38:01;;;;;;;14.77;13.17;;;;;;;20.38;100.00;95189.94;5047062;28;20454;-78
2023/06/23 01:40:28;;;;;;;16.70;14.37;;;;;;;20.37;100.00;95190.13;5096152;28;20436;-78
2023/06/23 01:42:57;;;;;;;17.23;13.50;;;;;;;20.36;100.00;95183.13;5096722;28;20530;-78
2023/06/23 01:45:28;;;;;;;15.27;13.67;;;;;;;20.34;100.00;95187.81;5096450;28;20434;-78
2023/06/23 01:47:59;;;;;;;15.27;12.07;;;;;;;20.25;100.00;95186.25;5095990;28;20482;-78
2023/06/23 01:50:26;;;;;;;19.53;12.17;;;;;;;20.26;100.00;95182.59;5096195;28;20460;-78
2023/06/23 01:52:56;;;;;;;19.13;13.70;;;;;;;20.21;100.00;95183.09;5096404;28;20484;-78
2023/06/23 01:55:24;;;;;;;14.90;13.40;;;;;;;20.15;100.00;95186.50;5096100;28;20453;-77
2023/06/23 01:57:53;;;;;;;15.27;13.73;;;;;;;20.12;100.00;95192.19;5095723;28;20442;-77
2023/06/23 02:00:22;;;;;;;15.90;14.30;;;;;;;20.15;100.00;95191.00;5096432;28;20805;-78
2023/06/23 02:02:52;;;;;;;17.50;14.57;;;;;;;20.21;100.00;95195.59;5060218;28;20442;-78
2023/06/23 02:05:23;;;;;;;19.30;15.50;;;;;;;20.20;100.00;95191.28;5095835;28;20437;-78
2023/06/23 02:07:52;;;;;;;17.73;12.77;;;;;;;20.16;100.00;95190.81;5043845;28;20505;-78
2023/06/23 02:10:20;;;;;;;22.07;14.30;;;;;;;20.10;100.00;95178.22;5095972;28;20437;-78
2023/06/23 02:12:49;;;;;;;16.17;13.87;;;;;;;20.14;100.00;95195.50;5095557;28;20441;-79
2023/06/23 02:18:01;;;;;;;18.47;14.13;;;;;;;20.16;100.00;95192.66;5013907;28;20441;-76
2023/06/23 02:20:30;;;;;;;14.37;12.97;;;;;;;20.11;100.00;95196.69;5013633;28;21000;-77
2023/06/23 02:22:58;;;;;;;17.43;14.60;;;;;;;20.08;100.00;95189.06;5013665;28;20809;-78
2023/06/23 02:25:26;;;;;;;18.90;14.17;;;;;;;20.11;100.00;95185.22;5013160;28;20457;-78
2023/06/23 02:27:53;;;;;;;14.20;12.77;;;;;;;20.12;100.00;95189.53;5013565;28;20484;-77
2023/06/23 02:30:20;;;;;;;15.43;13.50;;;;;;;20.10;100.00;95188.91;5013699;28;20439;-78
2023/06/23 02:32:48;;;;;;;14.20;12.70;;;;;;;20.08;100.00;95190.91;5013512;28;21082;-76
2023/06/23 02:42:14;;;;;;;14.70;13.03;;;;;;;20.05;100.00;95185.94;5013333;28;20439;-77
2023/06/23 02:44:53;;;;;;;16.53;14.83;;;;;;;20.10;100.00;95188.91;5013186;28;20441;-77
2023/06/23 02:47:22;;;;;;;16.17;14.47;;;;;;;20.11;100.00;95187.88;5013118;28;20464;-77
2023/06/23 02:49:52;;;;;;;15.33;13.50;;;;;;;20.06;100.00;95184.94;5087804;28;20446;-77
2023/06/23 02:52:20;;;;;;;15.30;13.57;;;;;;;20.07;100.00;95189.25;5094744;28;20816;-78
2023/06/23 02:54:50;;;;;;;16.60;14.50;;;;;;;20.06;100.00;95183.09;5094963;28;20424;-76
2023/06/23 02:57:21;;;;;;;17.83;14.07;;;;;;;19.98;100.00;95175.19;5094849;28;20434;-76
2023/06/23 02:59:53;;;;;;;15.90;14.30;;;;;;;20.06;100.00;95184.94;5094813;28;20536;-77
2023/06/23 03:02:24;;;;;;;14.87;13.40;;;;;;;19.95;100.00;95185.34;5088254;28;20449;-76
2023/06/23 03:04:52;;;;;;;19.50;13.07;;;;;;;19.93;100.00;95190.03;5075014;28;20825;-77
2023/06/23 03:07:19;;;;;;;15.10;13.50;;;;;;;19.95;100.00;95191.53;5074556;28;20483;-76
2023/06/23 03:09:46;;;;;;;14.37;12.40;;;;;;;19.95;100.00;95180.03;5074343;28;20446;-77
2023/06/23 03:12:13;;;;;;;15.53;13.63;;;;;;;19.96;100.00;95187.88;5074808;28;20455;-76
2023/06/23 03:14:41;;;;;;;14.90;13.30;;;;;;;19.97;100.00;95178.03;5074738;28;20916;-77
2023/06/23 03:17:13;;;;;;;14.33;12.93;;;;;;;20.03;100.00;95183.47;5074540;28;20475;-77
2023/06/23 03:19:47;;;;;;;14.87;13.27;;;;;;;20.08;100.00;95185.59;5074188;28;20933;-79
2023/06/23 03:32:29;;;;;;;15.40;13.80;;;;;;;20.38;100.00;95187.28;5073982;28;20470;-78
2023/06/23 03:35:03;;;;;;;13.93;12.30;;;;;;;20.54;100.00;95188.16;5073943;28;20442;-78
2023/06/23 03:37:32;;;;;;;13.30;12.00;;;;;;;20.63;100.00;95179.88;5072971;28;20440;-78
2023/06/23 03:40:06;;;;;;;13.93;12.43;;;;;;;20.86;100.00;95193.09;5073638;28;20431;-78
2023/06/23 04:03:19;;;;;;;20.23;13.10;;;;;;;22.10;100.00;95200.00;5071642;28;20524;-79
2023/06/23 04:05:48;;;;;;;17.47;14.00;;;;;;;22.08;100.00;95201.22;5073559;28;20443;-79
2023/06/23 04:08:18;;;;;;;18.37;13.60;;;;;;;22.13;100.00;95196.94;5073683;28;20494;-79
2023/06/23 04:10:47;;;;;;;17.57;13.83;;;;;;;22.24;100.00;95201.72;5073539;28;20921;-79
2023/06/23 04:13:15;;;;;;;16.27;14.57;;;;;;;22.41;100.00;95207.63;5038459;28;20921;-82
2023/06/23 04:15:44;;;;;;;22.60;14.33;;;;;;;22.57;100.00;95209.19;5073804;28;20452;-79
2023/06/23 04:18:14;;;;;;;17.60;13.47;;;;;;;22.67;100.00;95206.97;5073894;28;20434;-80
2023/06/23 04:20:45;;;;;;;18.83;13.50;;;;;;;22.69;98.91;95209.47;5074086;28;20445;-81
2023/06/23 04:23:13;;;;;;;16.03;13.60;;;;;;;22.61;100.00;95218.47;5073565;28;20441;-78
2023/06/23 04:25:41;;;;;;;15.83;14.07;;;;;;;22.49;100.00;95212.81;5073985;28;20454;-82
2023/06/23 04:28:12;;;;;;;16.70;14.00;;;;;;;22.51;100.00;95223.31;5073170;28;20483;-80
2023/06/23 04:30:40;;;;;;;18.40;15.50;;;;;;;22.55;100.00;95208.53;5078665;28;20434;-79
2023/06/23 04:36:41;;;;;;;19.47;15.27;;;;;;;23.09;98.45;95221.22;5093483;28;20778;-78
2023/06/23 04:39:17;;;;;;;21.43;16.00;;;;;;;23.26;98.42;95211.00;5094199;28;20454;-79
2023/06/23 04:41:48;;;;;;;18.10;15.40;;;;;;;23.51;97.00;95219.34;5093333;28;20441;-77
2023/06/23 04:44:21;;;;;;;22.00;16.20;;;;;;;23.62;96.68;95218.75;5041799;28;20486;-79
2023/06/23 04:46:52;;;;;;;16.23;14.63;;;;;;;23.83;95.65;95223.97;5073877;28;20442;-78
2023/06/23 04:49:22;;;;;;;20.90;15.03;;;;;;;23.77;96.25;95227.47;5076913;28;20833;-77
2023/06/23 04:51:54;;;;;;;22.33;16.00;;;;;;;23.94;96.72;95226.03;5080325;28;20447;-79
2023/06/23 04:54:26;;;;;;;17.13;15.30;;;;;;;24.24;95.45;95228.31;5097706;28;20438;-80
2023/06/23 04:57:00;;;;;;;20.23;14.77;;;;;;;24.47;93.34;95236.00;5045079;28;21569;-79
2023/06/23 04:59:28;;;;;;;17.73;15.90;;;;;;;24.67;91.32;95236.81;5097902;28;20451;-79
2023/06/23 05:01:56;;;;;;;20.77;16.03;;;;;;;25.04;91.42;95232.63;5093568;28;21351;-82
2023/06/23 05:04:24;;;;;;;16.13;14.40;;;;;;;25.52;92.79;95240.31;5076751;28;20506;-81
2023/06/23 05:06:53;;;;;;;19.50;13.10;;;;;;;25.97;96.11;95233.03;5042220;28;20445;-82
2023/06/23 05:09:21;;;;;;;17.03;12.00;;;;;;;26.37;95.19;95233.63;5076827;28;20469;-83
2023/06/23 05:11:49;;;;;;;11.90;10.70;;;;;;;26.67;84.35;95246.41;5076751;28;20436;-90
2023/06/23 05:14:17;;;;;;;12.47;11.00;;;;;;;27.05;82.82;95241.72;5076639;28;20453;-83
2023/06/23 05:16:45;;;;;;;13.70;12.07;;;;;;;27.37;84.46;95233.47;5076456;28;20440;-83
2023/06/23 05:19:13;;;;;;;16.30;12.63;;;;;;;27.69;79.36;95240.34;5076299;28;20819;-85
2023/06/23 05:21:41;;;;;;;17.07;12.17;;;;;;;27.93;78.41;95248.53;5076626;28;20425;-83
2023/06/23 05:24:11;;;;;;;22.40;12.37;;;;;;;28.27;83.34;95238.94;5076912;28;20433;-81
2023/06/23 05:26:41;;;;;;;11.07;9.97;;;;;;;28.56;76.08;95253.41;5077871;28;20433;-81
2023/06/23 05:39:38;;;;;;;11.93;10.20;;;;;;;29.39;69.46;95253.19;5096701;28;20461;-82
2023/06/23 05:42:05;;;;;;;16.33;11.60;;;;;;;29.46;67.29;95253.91;5096690;28;20464;-82
2023/06/23 05:44:33;;;;;;;14.97;11.40;;;;;;;29.59;67.57;95255.53;5096976;28;20883;-83
2023/06/23 05:47:04;;;;;;;11.57;10.37;;;;;;;29.77;66.50;95243.69;5096734;28;20548;-84
2023/06/23 05:49:39;;;;;;;14.13;10.50;;;;;;;29.97;64.93;95249.50;5096438;28;20525;-81
2023/06/23 05:55:30;;;;;;;15.70;12.00;;;;;;;30.29;64.59;95255.28;5096394;28;20403;-83
2023/06/23 05:58:01;;;;;;;18.23;11.60;;;;;;;30.10;66.26;95237.63;5096372;28;20443;-83
2023/06/23 06:00:34;;;;;;;12.27;11.17;;;;;;;30.21;66.44;95244.84;5096195;28;20436;-81
2023/06/23 06:03:04;;;;;;;15.70;14.17;;;;;;;29.71;66.42;95252.78;5096651;28;20448;-78
2023/06/23 06:05:33;;;;;;;16.43;14.03;;;;;;;29.41;68.78;95245.66;5096126;28;20780;-80
2023/06/23 06:08:02;;;;;;;17.10;14.77;;;;;;;28.76;70.65;95255.78;5096898;28;20483;-85
2023/06/23 06:10:32;;;;;;;14.43;12.93;;;;;;;28.75;70.27;95246.88;5096460;28;20432;-80
2023/06/23 06:13:01;;;;;;;13.90;12.60;;;;;;;28.97;71.73;95255.25;5060701;28;20444;-84
2023/06/23 06:15:32;;;;;;;18.93;14.70;;;;;;;28.83;70.53;95251.91;5096715;28;20432;-81
2023/06/23 06:18:04;;;;;;;16.27;14.77;;;;;;;28.92;71.58;95245.16;5095538;28;20464;-79
2023/06/23 06:20:32;;;;;;;18.33;15.20;;;;;;;28.95;71.84;95241.97;5095396;28;20454;-80
2023/06/23 06:23:00;;;;;;;18.63;15.13;;;;;;;29.08;71.47;95234.66;5095676;28;20455;-80
2023/06/23 06:25:29;;;;;;;17.50;15.70;;;;;;;29.41;69.61;95240.25;5095676;28;20545;-78
2023/06/23 07:08:25;;;;;;;16.13;14.53;;;;;;;31.70;60.04;95181.72;5074409;28;20451;-80
2023/06/23 07:10:52;;;;;;;20.03;13.00;;;;;;;31.58;60.26;95181.88;5073480;28;20445;-81
2023/06/23 07:13:19;;;;;;;17.20;12.47;;;;;;;31.70;61.51;95176.28;5073756;28;20510;-80
2023/06/23 07:15:48;;;;;;;16.70;15.00;;;;;;;31.78;61.40;95172.31;5074684;28;20764;-79
2023/06/23 07:18:15;;;;;;;18.93;15.17;;;;;;;31.76;62.63;95169.88;5074413;28;20482;-80
2023/06/23 07:20:42;;;;;;;14.30;12.90;;;;;;;31.53;62.81;95167.44;5073315;28;20441;-80
2023/06/23 07:23:09;;;;;;;19.00;14.67;;;;;;;31.62;61.24;95177.56;5073313;28;20456;-79
2023/06/23 07:25:37;;;;;;;19.80;13.87;;;;;;;31.68;59.65;95165.69;5073400;28;20441;-79
2023/06/23 07:28:04;;;;;;;13.97;11.93;;;;;;;31.90;59.65;95164.88;5073205;28;20856;-79
2023/06/23 07:30:31;;;;;;;13.50;12.20;;;;;;;32.20;59.52;95173.28;5072782;28;20459;-80
2023/06/23 07:32:59;;;;;;;16.20;11.93;;;;;;;32.40;59.80;95175.41;5073098;28;20460;-79
2023/06/23 07:35:26;;;;;;;14.60;13.10;;;;;;;32.54;59.22;95178.47;5073068;28;20881;-80
2023/06/23 07:37:53;;;;;;;16.30;13.23;;;;;;;32.33;58.47;95174.78;5073024;28;20441;-79
2023/06/23 07:40:20;;;;;;;17.10;13.50;;;;;;;31.95;60.71;95163.00;5073310;28;20450;-80
2023/06/23 07:42:48;;;;;;;20.93;14.53;;;;;;;31.23;61.70;95165.19;5054742;28;20452;-79
2023/06/23 07:45:15;;;;;;;15.07;13.67;;;;;;;31.13;62.90;95163.09;5073203;28;20457;-79
2023/06/23 07:47:42;;;;;;;14.63;12.80;;;;;;;31.13;63.65;95163.09;5073344;28;20970;-79
2023/06/23 07:50:09;;;;;;;17.20;15.40;;;;;;;30.75;63.67;95163.94;5073022;28;20476;-79
2023/06/23 07:52:36;;;;;;;15.53;13.93;;;;;;;30.68;62.46;95150.59;5073138;28;20790;-79
2023/06/23 07:55:03;;;;;;;14.00;12.70;;;;;;;30.90;64.86;95158.72;5073216;28;20452;-80
2023/06/23 07:57:30;;;;;;;15.90;14.30;;;;;;;31.15;64.62;95150.09;5073108;28;20453;-80
2023/06/23 07:59:58;;;;;;;16.77;12.43;;;;;;;31.14;65.57;95143.06;5072718;28;20959;-79
2023/06/23 08:02:25;;;;;;;13.93;12.63;;;;;;;31.06;63.87;95143.50;5073073;28;20448;-79
2023/06/23 08:04:52;;;;;;;15.73;14.23;;;;;;;31.18;63.04;95143.38;5072786;28;20449;-79
2023/06/23 08:07:20;;;;;;;14.50;13.10;;;;;;;31.21;64.50;95145.59;5085737;28;20482;-79
2023/06/23 08:09:47;;;;;;;13.50;12.07;;;;;;;31.14;63.33;95143.06;5093363;28;20483;-77
2023/06/23 08:12:14;;;;;;;18.63;13.37;;;;;;;31.11;65.94;95135.41;5093014;28;20442;-79
2023/06/23 08:14:40;;;;;;;14.77;13.00;;;;;;;31.08;64.29;95150.31;5092928;28;20799;-79
2023/06/23 08:17:09;;;;;;;14.90;13.50;;;;;;;30.33;63.88;95150.81;5093152;28;20540;-80
2023/06/23 08:19:35;;;;;;;17.53;13.87;;;;;;;30.01;65.24;95144.28;5093018;28;20472;-79
2023/06/23 08:22:03;;;;;;;19.23;14.20;;;;;;;30.31;67.63;95152.13;5093360;28;20448;-79
2023/06/23 08:24:30;;;;;;;17.30;14.40;;;;;;;30.56;67.72;95144.38;5045715;28;20502;-80
2023/06/23 08:26:56;;;;;;;18.20;13.33;;;;;;;30.37;65.65;95143.84;5097191;28;20436;-79
2023/06/23 08:29:23;;;;;;;16.10;14.50;;;;;;;30.20;68.44;95145.72;5097028;28;20483;-79
2023/06/23 08:31:53;;;;;;;18.00;14.70;;;;;;;30.47;67.14;95145.88;5096991;28;20450;-79
2023/06/23 08:34:21;;;;;;;15.60;14.00;;;;;;;30.50;67.75;95146.22;5096932;28;20452;-79
2023/06/23 08:36:48;;;;;;;16.63;14.60;;;;;;;30.50;65.92;95145.38;5097548;28;20783;-79
2023/06/23 08:39:15;;;;;;;20.13;14.10;;;;;;;30.79;67.47;95149.66;5096727;28;20930;-80
2023/06/23 08:41:43;;;;;;;21.10;15.47;;;;;;;30.93;64.14;95143.84;5097234;28;20915;-80
2023/06/23 08:44:14;;;;;;;23.20;15.17;;;;;;;31.10;65.43;95145.44;5097082;28;20440;-80
2023/06/23 08:46:42;;;;;;;14.57;13.10;;;;;;;31.36;65.35;95138.47;5097080;28;20458;-80
2023/06/23 08:49:16;;;;;;;16.03;14.33;;;;;;;31.05;63.96;95142.69;5096806;28;20824;-79
2023/06/23 08:51:44;;;;;;;20.30;14.37;;;;;;;31.09;62.49;95146.53;5096932;28;20462;-79
2023/06/23 08:54:11;;;;;;;15.87;14.20;;;;;;;31.10;63.46;95137.31;5096561;28;20814;-79
2023/06/23 08:56:39;;;;;;;16.73;14.27;;;;;;;31.12;63.09;95137.88;5096772;28;20444;-78
2023/06/23 08:59:06;;;;;;;20.83;13.57;;;;;;;31.05;63.46;95141.84;5096551;28;20514;-78
2023/06/23 09:01:33;;;;;;;18.13;14.37;;;;;;;30.89;63.97;95138.09;5096760;28;20424;-81
2023/06/23 09:04:03;;;;;;;17.00;15.20;;;;;;;31.08;65.62;95135.94;5096889;28;20448;-80
2023/06/23 09:06:29;;;;;;;19.90;14.73;;;;;;;31.00;63.36;95128.25;5096582;28;20533;-80
2023/06/23 09:08:58;;;;;;;21.57;14.50;;;;;;;30.85;65.32;95126.13;5096283;28;20475;-79
2023/06/23 09:11:26;;;;;;;14.30;12.73;;;;;;;30.48;63.54;95125.84;5060767;28;20535;-80
2023/06/23 09:13:56;;;;;;;17.80;13.87;;;;;;;30.58;65.85;95122.47;5095753;28;20454;-79
2023/06/23 09:16:24;;;;;;;14.47;12.97;;;;;;;30.28;63.47;95122.84;5096524;28;20800;-79
2023/06/23 09:18:52;;;;;;;18.43;13.17;;;;;;;30.13;63.11;95124.25;5096489;28;20443;-79
2023/06/23 09:21:20;;;;;;;17.30;11.80;;;;;;;30.47;62.87;95118.81;5096355;28;20901;-80
2023/06/23 09:24:03;;;;;;;11.90;10.70;;;;;;;30.30;58.05;95118.81;5095856;28;21015;-79
2023/06/23 09:26:30;;;;;;;12.80;11.50;;;;;;;30.16;60.03;95112.91;5095722;28;20787;-79
2023/06/23 09:29:15;;;;;;;17.60;12.57;;;;;;;30.29;61.79;95113.63;5095894;28;20487;-79
2023/06/23 09:31:43;;;;;;;11.67;10.47;;;;;;;30.33;60.16;95101.25;5095469;28;20472;-79
2023/06/23 09:34:10;;;;;;;11.70;10.30;;;;;;;30.47;58.28;95110.69;5094198;28;20444;-79
2023/06/23 09:36:37;;;;;;;13.20;11.97;;;;;;;30.63;60.41;95111.72;5095442;28;20439;-79
2023/06/23 09:39:06;;;;;;;23.33;14.77;;;;;;;30.69;65.47;95106.16;5096576;28;20838;-79
2023/06/23 09:41:33;;;;;;;16.20;13.53;;;;;;;30.62;64.93;95104.69;5096628;28;20440;-79
2023/06/23 09:44:00;;;;;;;17.93;14.50;;;;;;;30.69;64.87;95106.16;5096947;28;20428;-79
2023/06/23 09:46:32;;;;;;;17.17;15.30;;;;;;;30.79;66.14;95106.28;5096131;28;20432;-79
2023/06/23 09:49:00;;;;;;;17.83;14.10;;;;;;;30.64;66.24;95108.78;5096142;28;21019;-79
2023/06/23 09:51:27;;;;;;;16.08;13.70;;;;;;;30.53;64.25;95112.38;5095316;28;20433;-80
2023/06/23 09:53:54;;;;;;;17.57;12.43;;;;;;;30.21;61.77;95106.75;5096296;28;20200;-79
2023/06/23 09:56:23;;;;;;;16.80;12.70;;;;;;;29.77;64.33;95098.41;5096257;28;20472;-79
2023/06/23 09:58:50;;;;;;;16.77;15.13;;;;;;;29.79;67.99;95096.31;5096212;28;20428;-79
2023/06/23 10:01:19;;;;;;;16.40;14.13;;;;;;;29.94;71.13;95090.31;5095632;28;20933;-81
2023/06/23 10:03:47;;;;;;;17.07;15.30;;;;;;;30.05;73.43;95091.34;5096016;28;20447;-80
2023/06/23 10:06:25;;;;;;;15.80;14.23;;;;;;;30.12;73.17;95084.72;5096053;28;20482;-78
2023/06/23 10:08:54;;;;;;;18.97;16.17;;;;;;;30.09;70.81;95085.22;5096006;28;20435;-79
2023/06/23 10:11:30;;;;;;;16.90;15.30;;;;;;;30.21;72.82;95096.75;5095627;28;20448;-77
2023/06/23 10:13:59;;;;;;;19.60;15.60;;;;;;;30.31;71.77;95087.13;5096181;28;20930;-77
2023/06/23 10:16:27;;;;;;;18.03;16.00;;;;;;;30.34;69.77;95084.75;5095940;28;20440;-79
2023/06/23 10:18:55;;;;;;;20.43;15.30;;;;;;;30.34;69.10;95078.50;5095649;28;20442;-77
2023/06/23 10:21:22;;;;;;;13.60;12.30;;;;;;;30.37;67.05;95078.84;5043853;28;20432;-78
2023/06/23 10:23:49;;;;;;;15.50;14.00;;;;;;;30.35;68.89;95085.56;5095416;28;20432;-78
2023/06/23 10:26:17;;;;;;;17.77;12.07;;;;;;;30.31;69.42;95077.13;5095302;28;20467;-76
2023/06/23 10:28:49;;;;;;;15.50;12.43;;;;;;;30.37;68.90;95080.75;5095270;28;20439;-77
2023/06/23 10:31:18;;;;;;;15.83;12.57;;;;;;;30.30;64.61;95069.25;5095549;28;20432;-78
2023/06/23 10:33:46;;;;;;;13.63;11.87;;;;;;;30.33;65.17;95068.75;5095085;28;20436;-77
2023/06/23 10:36:17;;;;;;;13.97;12.57;;;;;;;30.07;62.76;95068.41;5095297;28;20786;-79
2023/06/23 10:39:15;;;;;;;14.10;11.82;;;;;;;30.29;62.08;95067.59;5094706;28;20439;-80
2023/06/23 10:41:45;;;;;;;16.70;10.63;;;;;;;30.32;56.93;95059.81;5096125;28;20206;-79
2023/06/23 10:44:16;;;;;;;11.73;10.67;;;;;;;30.39;59.50;95059.66;5096059;28;20457;-79
2023/06/23 10:46:43;;;;;;;12.90;10.30;;;;;;;30.33;56.43;95057.91;5097279;28;20810;-78
2023/06/23 10:49:11;;;;;;;13.60;8.67;;;;;;;30.41;53.79;95049.38;5105703;28;20483;-81
2023/06/23 10:51:38;;;;;;;11.33;8.97;;;;;;;30.59;54.28;95042.84;5088140;28;20990;-80
2023/06/23 10:54:09;;;;;;;15.50;8.50;;;;;;;30.65;54.87;95045.41;5104333;28;20778;-78
2023/06/23 10:56:37;;;;;;;10.07;8.00;;;;;;;30.69;54.79;95037.59;5103597;28;20467;-80
2023/06/23 10:59:21;;;;;;;13.93;10.50;;;;;;;30.52;55.00;95045.75;5103021;28;20443;-79
2023/06/23 11:02:10;;;;;;;13.20;9.80;;;;;;;30.64;53.67;95043.75;5052086;28;20442;-79
2023/06/23 11:04:41;;;;;;;10.43;8.67;;;;;;;30.64;56.36;95035.63;5101887;28;20436;-80
2023/06/23 11:07:10;;;;;;;15.70;11.10;;;;;;;30.43;56.26;95031.00;5059722;28;20879;-80
2023/06/23 11:09:43;;;;;;;10.60;9.20;;;;;;;30.36;56.87;95014.09;5095159;28;20468;-80
2023/06/23 11:18:57;;;;;;;15.37;10.70;;;;;;;30.27;55.97;95026.44;5094707;28;21115;-78
2023/06/23 11:21:32;;;;;;;11.83;10.20;;;;;;;30.48;56.42;95022.94;5095068;28;20493;-81
2023/06/23 11:24:12;;;;;;;9.70;8.73;;;;;;;30.61;56.61;95016.34;5094965;28;20440;-79
2023/06/23 11:26:43;;;;;;;9.67;8.30;;;;;;;30.37;52.96;95002.22;5096110;28;20444;-81
2023/06/23 11:29:12;;;;;;;9.27;8.37;;;;;;;30.50;52.70;95004.53;5094978;28;20899;-80
2023/06/23 11:32:04;;;;;;;9.33;8.30;;;;;;;30.47;53.87;94999.63;5095089;28;20463;-79
2023/06/23 11:34:53;;;;;;;10.80;9.27;;;;;;;30.66;56.65;95001.00;5032023;28;20450;-81
2023/06/23 11:37:20;;;;;;;16.13;9.47;;;;;;;30.77;56.98;94999.22;5032141;28;20442;-79
2023/06/23 11:39:48;;;;;;;27.97;9.00;;;;;;;30.85;52.03;94998.75;4982858;28;20443;-78
2023/06/23 11:42:15;;;;;;;14.50;8.30;;;;;;;30.97;52.39;94995.94;5032005;28;20859;-77
2023/06/23 11:44:41;;;;;;;10.30;9.13;;;;;;;31.06;51.65;94986.25;5031868;28;20902;-79
2023/06/23 11:47:08;;;;;;;18.80;9.50;;;;;;;31.09;54.26;94986.56;5032000;28;20458;-79
2023/06/23 11:49:37;;;;;;;10.80;8.53;;;;;;;30.97;50.64;94994.03;5032034;28;20505;-78
2023/06/23 11:52:05;;;;;;;8.57;7.63;;;;;;;30.92;53.08;94990.44;4998902;28;21209;-78
2023/06/23 11:54:35;;;;;;;20.20;8.70;;;;;;;31.03;53.75;94992.19;5024810;28;20457;-79
2023/06/23 11:57:02;;;;;;;15.90;10.10;;;;;;;31.10;53.45;94984.66;5028540;28;20438;-79
2023/06/23 11:59:34;;;;;;;11.23;9.50;;;;;;;31.19;55.06;94983.16;5033246;28;21027;-78
2023/06/23 12:02:01;;;;;;;11.90;9.20;;;;;;;31.20;53.66;94982.06;5032294;28;20446;-78
2023/06/23 12:04:28;;;;;;;15.03;8.60;;;;;;;31.25;51.94;94979.44;5031156;28;20964;-78
2023/06/23 12:06:58;;;;;;;14.63;11.43;;;;;;;31.35;53.83;94984.13;5031554;28;20497;-78
2023/06/23 12:09:25;;;;;;;11.47;9.00;;;;;;;31.25;52.08;94979.44;5030924;28;20450;-78
2023/06/23 12:11:53;;;;;;;15.10;10.43;;;;;;;31.09;54.29;94983.03;5082412;28;20783;-78
2023/06/23 12:14:21;;;;;;;10.70;9.47;;;;;;;31.11;53.21;94983.59;5094160;28;20455;-78
2023/06/23 12:16:48;;;;;;;10.00;9.00;;;;;;;31.21;56.71;94977.47;5093282;28;20436;-78
2023/06/23 12:19:15;;;;;;;11.17;9.33;;;;;;;31.06;54.76;94975.41;5093295;28;20442;-79
2023/06/23 12:21:43;;;;;;;13.57;9.07;;;;;;;30.79;53.88;94972.69;5094663;28;20427;-79
2023/06/23 12:24:13;;;;;;;12.80;10.40;;;;;;;30.94;54.69;94969.31;5094404;28;20441;-81
2023/06/23 12:26:41;;;;;;;16.27;9.87;;;;;;;30.97;53.91;94971.53;5094051;28;20440;-79
2023/06/23 12:29:09;;;;;;;15.10;9.90;;;;;;;31.05;53.16;94963.75;5094725;28;20460;-79
2023/06/23 12:31:37;;;;;;;10.83;9.10;;;;;;;30.92;52.12;94968.75;5094503;28;20482;-80
2023/06/23 12:34:04;;;;;;;11.63;8.63;;;;;;;30.88;54.47;94962.19;5094715;28;20432;-81
2023/06/23 12:36:31;;;;;;;14.37;8.20;;;;;;;30.94;54.66;94955.75;5094024;28;20448;-77
2023/06/23 12:39:00;;;;;;;14.40;8.83;;;;;;;31.03;53.29;94965.09;5095130;28;20440;-79
2023/06/23 12:41:29;;;;;;;19.67;9.13;;;;;;;31.02;56.03;94948.00;5094336;28;20779;-79
2023/06/23 12:44:00;;;;;;;11.20;9.43;;;;;;;30.99;53.92;94958.53;5078317;28;20428;-80
2023/06/23 12:46:29;;;;;;;13.07;9.00;;;;;;;30.99;53.22;94958.53;5072668;28;20854;-78
2023/06/23 12:48:56;;;;;;;11.43;9.10;;;;;;;30.99;52.61;94955.84;5072768;28;20876;-79
2023/06/23 12:51:33;;;;;;;12.43;8.90;;;;;;;30.88;54.04;94946.75;5073081;28;20477;-79
2023/06/23 12:54:00;;;;;;;9.53;8.37;;;;;;;30.91;53.69;94950.84;5072991;28;20425;-79
2023/06/23 12:56:29;;;;;;;13.67;9.43;;;;;;;30.95;57.58;94952.00;5073246;28;20452;-80
2023/06/23 12:58:57;;;;;;;11.47;9.30;;;;;;;30.99;55.94;94947.69;5073153;28;20429;-80
2023/06/23 13:01:24;;;;;;;12.13;9.43;;;;;;;30.99;55.86;94940.38;5081482;28;20498;-79
2023/06/23 13:03:51;;;;;;;9.83;8.63;;;;;;;30.96;55.81;94950.94;5091852;28;20474;-80
2023/06/23 13:06:18;;;;;;;29.00;11.30;;;;;;;30.99;55.29;94945.00;5081573;28;20911;-80
2023/06/23 13:08:45;;;;;;;15.23;12.07;;;;;;;30.72;54.80;94940.38;5074362;28;20444;-84
2023/06/23 13:11:12;;;;;;;13.57;11.40;;;;;;;30.85;55.15;94943.75;5076923;28;20982;-81
2023/06/23 13:13:41;;;;;;;11.23;8.53;;;;;;;31.00;56.92;94939.31;5082663;28;20444;-80
2023/06/23 13:16:07;;;;;;;16.27;9.47;;;;;;;30.99;55.79;94942.28;5097024;28;20447;-85
2023/06/23 13:18:34;;;;;;;12.93;9.57;;;;;;;31.05;55.68;94938.53;5061919;28;20467;-84
2023/06/23 13:21:01;;;;;;;14.17;9.03;;;;;;;31.05;54.97;94941.25;5097484;28;20443;-84
2023/06/23 13:23:43;;;;;;;13.80;10.37;;;;;;;31.09;55.63;94942.38;5097788;28;20428;-80
2023/06/23 13:26:10;;;;;;;12.67;9.37;;;;;;;31.16;55.23;94945.72;5087406;28;20452;-81
2023/06/23 13:28:37;;;;;;;10.23;9.13;;;;;;;31.19;54.84;94937.06;5094154;28;20483;-79
2023/06/23 13:31:06;;;;;;;14.03;9.20;;;;;;;31.14;55.25;94939.69;5060866;28;20486;-81
2023/06/23 13:33:33;;;;;;;11.03;9.43;;;;;;;31.10;53.76;94936.69;5096786;28;20512;-81
2023/06/23 13:35:59;;;;;;;10.20;9.10;;;;;;;31.18;56.57;94929.19;5095608;28;20817;-79
2023/06/23 13:38:26;;;;;;;13.80;10.10;;;;;;;31.18;57.23;94923.75;5077394;28;20449;-81
2023/06/23 13:40:53;;;;;;;14.00;10.30;;;;;;;31.24;54.73;94928.19;5076306;28;20440;-80
2023/06/23 13:43:20;;;;;;;12.33;9.93;;;;;;;31.16;55.32;94931.31;5096152;28;20483;-79